Time;durP1;ratioP1;P1;durP2;ratioP2;P2;SDS_P1;SDS_P2;PMS_P1;PMS_P2;Temp;Humidity;BMP_temperature;BMP_pressure;BME280_temperature;BME280_humidity;BME280_pressure;Samples;Min_cycle;Max_cycle;Signal;HPM_P1;HPM_P2
2023/06/25 00:01:25;;;;;;;17.95;14.32;;;;;;;19.82;100.00;101857.28;5226535;28;20060;-70
2023/06/25 00:03:56;;;;;;;19.90;14.73;;;;;;;19.83;100.00;101853.56;5223233;28;20503;-71
2023/06/25 00:06:28;;;;;;;19.40;15.10;;;;;;;19.82;100.00;101853.72;5224648;28;20053;-70
2023/06/25 00:08:59;;;;;;;17.05;13.95;;;;;;;19.72;100.00;101860.06;5224726;28;20033;-70
2023/06/25 00:11:31;;;;;;;19.77;15.18;;;;;;;19.69;100.00;101856.75;5239824;28;20117;-69
2023/06/25 00:14:05;;;;;;;21.15;15.48;;;;;;;19.68;100.00;101846.94;5219244;28;20634;-69
2023/06/25 00:16:36;;;;;;;18.08;14.50;;;;;;;19.57;100.00;101842.59;5215677;28;20109;-69
2023/06/25 00:19:08;;;;;;;20.08;15.10;;;;;;;19.62;100.00;101847.53;5219604;28;20026;-69
2023/06/25 00:21:41;;;;;;;18.77;14.70;;;;;;;19.59;100.00;101854.13;5225256;28;20030;-70
2023/06/25 00:24:12;;;;;;;20.55;15.43;;;;;;;19.55;100.00;101847.31;5229564;28;20025;-69
2023/06/25 00:26:46;;;;;;;18.33;15.02;;;;;;;19.52;100.00;101844.91;5212921;28;20116;-69
2023/06/25 00:29:18;;;;;;;20.23;16.40;;;;;;;19.49;100.00;101839.81;5218695;28;20033;-70
2023/06/25 00:31:49;;;;;;;23.83;16.35;;;;;;;19.47;100.00;101848.06;5222768;28;20366;-69
2023/06/25 00:34:20;;;;;;;19.77;15.77;;;;;;;19.45;100.00;101836.53;5213805;28;20040;-70
2023/06/25 00:36:52;;;;;;;22.08;15.48;;;;;;;19.41;100.00;101840.56;5223260;28;20034;-69
2023/06/25 00:39:23;;;;;;;23.38;15.93;;;;;;;19.39;100.00;101839.84;5221954;28;20471;-69
2023/06/25 00:41:58;;;;;;;22.33;15.60;;;;;;;19.30;100.00;101833.47;5217261;28;20044;-69
2023/06/25 00:44:29;;;;;;;20.92;16.00;;;;;;;19.27;100.00;101828.38;5215807;28;20025;-69
2023/06/25 00:47:01;;;;;;;23.25;16.88;;;;;;;19.28;100.00;101832.78;5215771;28;20171;-69
2023/06/25 00:49:33;;;;;;;20.02;15.88;;;;;;;19.25;100.00;101838.47;5222234;28;20045;-69
2023/06/25 00:52:09;;;;;;;19.17;16.10;;;;;;;19.17;100.00;101828.41;5222132;28;20419;-69
2023/06/25 00:54:44;;;;;;;19.42;15.40;;;;;;;19.18;100.00;101829.28;5225591;28;20464;-69
2023/06/25 00:57:16;;;;;;;20.42;16.17;;;;;;;19.23;100.00;101820.69;5231322;28;20024;-69
2023/06/25 00:59:51;;;;;;;22.88;16.70;;;;;;;19.10;100.00;101823.75;5226930;28;20026;-70
2023/06/25 01:02:48;;;;;;;21.50;15.45;;;;;;;19.19;100.00;101821.03;5225816;28;20033;-69
2023/06/25 01:05:26;;;;;;;20.30;16.85;;;;;;;19.07;100.00;101821.38;5227956;28;20038;-68
2023/06/25 01:07:59;;;;;;;21.52;17.13;;;;;;;19.05;100.00;101816.09;5224617;28;20482;-69
2023/06/25 01:10:31;;;;;;;21.90;17.10;;;;;;;18.99;100.00;101822.94;5226600;28;20038;-69
2023/06/25 01:13:03;;;;;;;21.10;16.52;;;;;;;19.06;100.00;101809.69;5223973;28;20045;-69
2023/06/25 01:15:34;;;;;;;23.15;17.90;;;;;;;18.98;100.00;101815.84;5222845;28;20044;-69
2023/06/25 01:18:06;;;;;;;22.10;16.95;;;;;;;18.91;100.00;101813.88;5230186;28;20030;-69
2023/06/25 01:20:38;;;;;;;24.02;18.23;;;;;;;18.91;100.00;101817.44;5229768;28;20079;-69
2023/06/25 01:23:10;;;;;;;20.40;18.15;;;;;;;18.90;100.00;101817.59;5224783;28;20029;-69
2023/06/25 01:25:47;;;;;;;23.73;18.02;;;;;;;18.84;100.00;101804.66;5226765;28;20034;-69
2023/06/25 01:28:20;;;;;;;23.92;18.67;;;;;;;18.96;100.00;101800.75;5227005;28;20053;-69
2023/06/25 01:30:52;;;;;;;22.73;19.00;;;;;;;18.91;100.00;101805.78;5223083;28;20029;-69
2023/06/25 01:33:25;;;;;;;25.20;18.60;;;;;;;18.72;100.00;101803.97;5220594;28;20034;-69
2023/06/25 01:35:57;;;;;;;20.80;17.27;;;;;;;18.75;100.00;101792.84;5227347;28;20029;-69
2023/06/25 01:38:28;;;;;;;23.08;18.90;;;;;;;18.70;100.00;101798.69;5222004;28;20028;-69
2023/06/25 01:41:00;;;;;;;22.95;18.73;;;;;;;18.70;100.00;101790.59;5241118;28;20025;-69
2023/06/25 01:43:31;;;;;;;23.70;18.98;;;;;;;18.74;100.00;101791.16;5222305;28;20029;-69
2023/06/25 01:46:03;;;;;;;20.30;17.67;;;;;;;18.74;100.00;101788.44;5247031;28;20041;-69
2023/06/25 01:48:35;;;;;;;23.80;18.95;;;;;;;18.69;100.00;101783.47;5235434;28;20435;-69
2023/06/25 01:51:06;;;;;;;23.75;18.75;;;;;;;18.65;100.00;101784.75;5227708;28;20471;-69
2023/06/25 01:53:37;;;;;;;25.05;19.48;;;;;;;18.70;100.00;101781.63;5226945;28;20029;-70
2023/06/25 01:56:09;;;;;;;25.17;19.50;;;;;;;18.69;100.00;101782.63;5231219;28;20041;-69
2023/06/25 01:58:40;;;;;;;22.70;19.35;;;;;;;18.65;100.00;101771.25;5239870;28;20380;-69
2023/06/25 02:01:11;;;;;;;23.95;18.77;;;;;;;18.59;100.00;101769.97;5242151;28;20040;-69
2023/06/25 02:03:43;;;;;;;24.55;18.85;;;;;;;18.60;100.00;101769.00;5234211;28;20483;-69
2023/06/25 02:06:15;;;;;;;23.85;20.25;;;;;;;18.57;100.00;101763.88;5228580;28;20400;-69
2023/06/25 02:08:46;;;;;;;24.17;19.17;;;;;;;18.54;100.00;101758.78;5237263;28;20162;-69
2023/06/25 02:11:18;;;;;;;24.23;19.33;;;;;;;18.54;100.00;101753.38;5232162;28;20033;-69
2023/06/25 02:13:50;;;;;;;25.17;20.42;;;;;;;18.49;100.00;101758.34;5233284;28;20106;-69
2023/06/25 02:16:21;;;;;;;24.27;20.67;;;;;;;18.59;100.00;101756.47;5237648;28;20459;-69
2023/06/25 02:18:53;;;;;;;25.58;21.73;;;;;;;18.53;100.00;101757.06;5234062;28;20108;-69
2023/06/25 02:21:24;;;;;;;26.58;21.85;;;;;;;18.48;100.00;101745.00;5225723;28;20141;-69
2023/06/25 02:23:55;;;;;;;28.65;21.67;;;;;;;18.36;100.00;101747.03;5227963;28;20029;-69
2023/06/25 02:26:27;;;;;;;24.17;20.23;;;;;;;18.43;100.00;101745.44;5235094;28;20036;-69
2023/06/25 02:28:58;;;;;;;24.23;20.45;;;;;;;18.46;100.00;101741.59;5231349;28;20061;-69
2023/06/25 02:31:30;;;;;;;23.58;20.27;;;;;;;18.40;100.00;101741.16;5242358;28;20100;-69
2023/06/25 02:34:01;;;;;;;23.77;20.65;;;;;;;18.42;100.00;101738.31;5231590;28;20029;-69
2023/06/25 02:36:35;;;;;;;23.75;20.67;;;;;;;18.47;100.00;101730.63;5234048;28;20082;-69
2023/06/25 02:39:06;;;;;;;26.58;21.85;;;;;;;18.33;100.00;101729.25;5236152;28;20136;-69
2023/06/25 02:41:38;;;;;;;25.17;21.95;;;;;;;18.33;100.00;101728.38;5231664;28;20132;-69
2023/06/25 02:44:09;;;;;;;29.27;22.52;;;;;;;18.34;100.00;101735.50;5233228;28;20474;-69
2023/06/25 02:46:41;;;;;;;31.27;22.95;;;;;;;18.29;100.00;101727.81;5234463;28;20037;-69
2023/06/25 02:49:12;;;;;;;26.85;23.02;;;;;;;18.39;100.00;101727.81;5220362;28;20038;-69
2023/06/25 02:51:43;;;;;;;27.73;23.48;;;;;;;18.18;100.00;101726.16;5230591;28;20069;-69
2023/06/25 02:54:15;;;;;;;26.13;23.17;;;;;;;18.18;100.00;101726.16;5236963;28;20026;-69
2023/06/25 02:56:46;;;;;;;29.02;24.58;;;;;;;18.17;100.00;101719.03;5225887;28;20088;-69
2023/06/25 02:59:18;;;;;;;28.33;24.48;;;;;;;18.17;100.00;101720.91;5232577;28;20467;-69
2023/06/25 03:01:49;;;;;;;29.25;24.70;;;;;;;18.15;100.00;101725.59;5233178;28;20025;-69
2023/06/25 03:04:20;;;;;;;27.95;22.90;;;;;;;18.12;100.00;101710.53;5229018;28;20041;-68
2023/06/25 03:06:52;;;;;;;29.05;24.17;;;;;;;18.11;100.00;101722.34;5229801;28;20051;-69
2023/06/25 03:09:23;;;;;;;29.80;23.73;;;;;;;18.15;100.00;101721.03;5219801;28;20451;-69
2023/06/25 03:11:54;;;;;;;27.13;23.00;;;;;;;18.29;100.00;101721.56;5220789;28;20105;-69
2023/06/25 03:14:26;;;;;;;26.20;22.60;;;;;;;18.08;100.00;101719.91;5225157;28;20406;-69
2023/06/25 03:16:57;;;;;;;27.40;23.88;;;;;;;18.10;100.00;101714.38;5243891;28;20036;-69
2023/06/25 03:19:29;;;;;;;25.60;22.83;;;;;;;18.16;100.00;101714.66;5235846;28;20115;-69
2023/06/25 03:22:00;;;;;;;28.70;23.98;;;;;;;18.14;100.00;101713.94;5228267;28;20495;-69
2023/06/25 03:24:32;;;;;;;27.92;22.65;;;;;;;18.28;100.00;101719.91;5227957;28;20017;-69
2023/06/25 03:27:03;;;;;;;27.80;22.98;;;;;;;18.15;100.00;101715.63;5236725;28;20472;-69
2023/06/25 03:29:35;;;;;;;25.25;21.90;;;;;;;18.04;100.00;101713.09;5226117;28;20028;-69
2023/06/25 03:32:07;;;;;;;25.38;22.67;;;;;;;18.12;100.00;101715.94;5225937;28;20035;-69
2023/06/25 03:34:38;;;;;;;27.10;21.88;;;;;;;18.21;100.00;101711.50;5225865;28;20036;-69
2023/06/25 03:37:09;;;;;;;24.00;21.40;;;;;;;18.11;100.00;101710.69;5232289;28;20645;-69
2023/06/25 03:39:41;;;;;;;24.80;22.10;;;;;;;18.18;100.00;101712.66;5227833;28;20033;-69
2023/06/25 03:42:12;;;;;;;26.05;21.90;;;;;;;18.06;100.00;101711.09;5223872;28;20036;-69
2023/06/25 03:44:55;;;;;;;29.05;23.05;;;;;;;18.16;100.00;101705.69;5224901;28;20025;-69
2023/06/25 03:47:26;;;;;;;23.70;21.13;;;;;;;18.02;100.00;101707.88;5218048;28;20048;-68
2023/06/25 03:49:57;;;;;;;26.30;21.33;;;;;;;17.99;100.00;101699.19;5216942;28;22277;-69
2023/06/25 03:52:29;;;;;;;26.45;21.65;;;;;;;17.97;100.00;101701.19;5217319;28;20508;-68
2023/06/25 03:55:00;;;;;;;24.65;22.05;;;;;;;18.02;100.00;101713.28;5218193;28;20440;-68
2023/06/25 03:57:31;;;;;;;26.95;21.98;;;;;;;18.15;100.00;101704.84;5220106;28;20476;-69
2023/06/25 04:00:04;;;;;;;24.98;22.23;;;;;;;18.20;100.00;101696.31;5221874;28;20026;-69
2023/06/25 04:02:35;;;;;;;26.23;22.58;;;;;;;17.92;100.00;101703.47;5217303;28;20029;-69
2023/06/25 04:05:07;;;;;;;29.42;22.92;;;;;;;17.99;100.00;101696.50;5220763;28;20032;-69
2023/06/25 04:07:38;;;;;;;30.60;23.27;;;;;;;18.02;100.00;101704.28;5233911;28;20479;-69
2023/06/25 04:10:10;;;;;;;25.08;22.42;;;;;;;17.94;100.00;101702.31;5219481;28;20534;-69
2023/06/25 04:12:41;;;;;;;27.23;23.15;;;;;;;18.08;100.00;101709.09;5219166;28;20041;-69
2023/06/25 04:15:13;;;;;;;29.10;24.70;;;;;;;17.94;100.00;101707.72;5233001;28;20033;-69
2023/06/25 04:17:46;;;;;;;27.15;24.23;;;;;;;18.06;100.00;101700.31;5221549;28;20136;-69
2023/06/25 04:20:18;;;;;;;29.85;24.05;;;;;;;18.10;100.00;101704.44;5220074;28;20026;-69
2023/06/25 04:22:49;;;;;;;25.35;22.75;;;;;;;18.06;100.00;101708.41;5214456;28;20870;-68
2023/06/25 04:25:21;;;;;;;28.42;25.30;;;;;;;18.03;100.00;101706.84;5219020;28;20033;-69
2023/06/25 04:27:54;;;;;;;27.90;24.92;;;;;;;18.09;100.00;101699.19;5220821;28;20444;-69
2023/06/25 04:30:25;;;;;;;28.73;24.95;;;;;;;18.10;100.00;101699.03;5236743;28;20044;-69
2023/06/25 04:32:57;;;;;;;29.35;26.17;;;;;;;18.07;100.00;101693.06;5229143;28;20383;-69
2023/06/25 04:35:28;;;;;;;29.05;25.88;;;;;;;18.12;100.00;101699.75;5228072;28;20391;-69
2023/06/25 04:38:00;;;;;;;29.08;25.83;;;;;;;18.15;100.00;101699.44;5233626;28;20086;-69
2023/06/25 04:40:31;;;;;;;28.35;25.40;;;;;;;18.13;100.00;101701.44;5219928;28;20025;-69
2023/06/25 04:43:02;;;;;;;29.17;26.15;;;;;;;18.22;100.00;101697.00;5224665;28;20030;-69
2023/06/25 04:45:34;;;;;;;29.83;26.77;;;;;;;18.26;100.00;101700.28;5217128;28;20037;-69
2023/06/25 04:48:05;;;;;;;31.42;27.27;;;;;;;18.21;100.00;101698.00;5220266;28;20507;-69
2023/06/25 04:50:37;;;;;;;30.35;27.17;;;;;;;18.25;100.00;101703.97;5225615;28;20033;-69
2023/06/25 04:53:08;;;;;;;28.35;25.45;;;;;;;18.14;100.00;101697.75;5228387;28;20033;-69
2023/06/25 04:55:40;;;;;;;30.15;26.92;;;;;;;18.24;100.00;101697.72;5234761;28;20048;-69
2023/06/25 04:58:11;;;;;;;30.83;27.48;;;;;;;18.26;100.00;101692.16;5225774;28;20017;-69
2023/06/25 05:00:43;;;;;;;32.15;28.85;;;;;;;18.28;100.00;101699.13;5225599;28;20131;-69
2023/06/25 05:03:14;;;;;;;31.25;28.17;;;;;;;18.29;100.00;101706.22;5218850;28;20029;-69
2023/06/25 05:05:45;;;;;;;32.13;29.00;;;;;;;18.32;100.00;101699.69;5227286;28;20406;-69
2023/06/25 05:08:17;;;;;;;29.15;26.15;;;;;;;18.35;100.00;101691.25;5223634;28;20032;-69
2023/06/25 05:10:48;;;;;;;28.20;25.30;;;;;;;18.38;100.00;101688.28;5223180;28;20049;-69
2023/06/25 05:13:20;;;;;;;29.92;26.83;;;;;;;18.39;100.00;101685.44;5226900;28;20033;-69
2023/06/25 05:15:51;;;;;;;33.45;30.08;;;;;;;18.48;100.00;101694.47;5227728;28;20400;-69
2023/06/25 05:18:23;;;;;;;31.50;28.42;;;;;;;18.47;100.00;101698.19;5226317;28;20034;-69
2023/06/25 05:20:54;;;;;;;32.05;28.80;;;;;;;18.46;100.00;101692.94;5225773;28;20091;-69
2023/06/25 05:23:26;;;;;;;29.88;26.88;;;;;;;18.49;100.00;101688.09;5221805;28;20064;-69
2023/06/25 05:25:57;;;;;;;31.50;28.30;;;;;;;18.52;100.00;101692.34;5226902;28;20037;-69
2023/06/25 05:28:28;;;;;;;32.42;29.23;;;;;;;18.51;100.00;101691.50;5225168;28;20356;-69
2023/06/25 05:31:00;;;;;;;32.78;29.60;;;;;;;18.55;100.00;101690.19;5228934;28;20436;-69
2023/06/25 05:33:31;;;;;;;32.58;29.25;;;;;;;18.54;100.00;101693.91;5228138;28;20131;-69
2023/06/25 05:36:03;;;;;;;32.40;29.17;;;;;;;18.56;100.00;101691.03;5228187;28;20025;-69
2023/06/25 05:38:35;;;;;;;33.97;30.38;;;;;;;18.57;100.00;101700.88;5227821;28;20128;-69
2023/06/25 05:41:06;;;;;;;32.55;29.35;;;;;;;18.56;100.00;101696.44;5234731;28;20013;-69
2023/06/25 05:43:38;;;;;;;30.75;27.73;;;;;;;18.59;100.00;101685.34;5227866;28;20036;-69
2023/06/25 05:46:11;;;;;;;35.95;32.42;;;;;;;18.74;100.00;101691.97;5228383;28;20033;-69
2023/06/25 05:48:44;;;;;;;31.85;28.75;;;;;;;18.75;100.00;101682.81;5227716;28;20124;-69
2023/06/25 05:51:15;;;;;;;33.03;29.85;;;;;;;18.77;100.00;101678.16;5226248;28;20083;-69
2023/06/25 05:53:47;;;;;;;31.17;28.17;;;;;;;18.78;100.00;101679.00;5231977;28;20033;-69
2023/06/25 05:56:18;;;;;;;30.40;27.33;;;;;;;18.83;100.00;101676.72;5230431;28;20028;-69
2023/06/25 05:58:50;;;;;;;30.95;27.75;;;;;;;18.85;100.00;101680.13;5233065;28;20029;-69
2023/06/25 06:01:22;;;;;;;30.02;26.83;;;;;;;19.04;100.00;101673.72;5232031;28;20021;-69
2023/06/25 06:03:53;;;;;;;28.13;24.30;;;;;;;18.89;100.00;101670.72;5236826;28;20091;-69
2023/06/25 06:06:24;;;;;;;28.08;25.17;;;;;;;18.87;100.00;101669.13;5234728;28;20059;-68
2023/06/25 06:08:56;;;;;;;27.95;25.10;;;;;;;18.95;100.00;101677.38;5235992;28;20033;-69
2023/06/25 06:11:27;;;;;;;26.17;23.58;;;;;;;19.03;100.00;101673.91;5237377;28;20037;-69
2023/06/25 06:13:59;;;;;;;25.33;22.73;;;;;;;18.97;100.00;101678.06;5235300;28;20392;-69
2023/06/25 06:16:30;;;;;;;23.90;21.50;;;;;;;19.00;100.00;101681.31;5244729;28;20032;-69
2023/06/25 06:19:02;;;;;;;23.73;21.23;;;;;;;19.07;100.00;101683.41;5233676;28;20504;-69
2023/06/25 06:21:33;;;;;;;21.90;19.58;;;;;;;19.12;100.00;101681.94;5231087;28;20037;-69
2023/06/25 06:24:05;;;;;;;22.67;19.05;;;;;;;19.15;100.00;101683.47;5231016;28;20037;-70
2023/06/25 06:26:36;;;;;;;20.70;18.52;;;;;;;19.25;100.00;101678.84;5227270;28;20503;-70
2023/06/25 06:29:07;;;;;;;21.13;18.38;;;;;;;19.36;100.00;101678.63;5226779;28;20109;-70
2023/06/25 06:31:40;;;;;;;18.55;16.55;;;;;;;19.40;100.00;101679.16;5226350;28;20041;-69
2023/06/25 06:34:11;;;;;;;18.35;14.45;;;;;;;19.49;100.00;101675.53;5229070;28;20029;-70
2023/06/25 06:36:43;;;;;;;17.17;13.10;;;;;;;19.75;100.00;101664.78;5232272;28;20037;-70
2023/06/25 06:39:17;;;;;;;14.10;11.10;;;;;;;19.83;100.00;101655.88;5227747;28;20420;-69
2023/06/25 06:41:49;;;;;;;13.98;11.32;;;;;;;20.00;100.00;101653.25;5226386;28;20045;-70
2023/06/25 06:44:20;;;;;;;14.43;11.10;;;;;;;20.11;100.00;101656.53;5232738;28;20025;-70
2023/06/25 06:46:51;;;;;;;12.65;9.35;;;;;;;20.39;100.00;101645.53;5222927;28;20036;-70
2023/06/25 06:49:23;;;;;;;13.32;9.20;;;;;;;20.28;100.00;101640.38;5227942;28;20044;-70
2023/06/25 06:51:54;;;;;;;12.77;9.82;;;;;;;20.42;100.00;101642.47;5228884;28;20026;-70
2023/06/25 06:54:26;;;;;;;11.23;8.80;;;;;;;20.75;100.00;101643.50;5223913;28;20434;-70
2023/06/25 06:56:57;;;;;;;9.88;7.90;;;;;;;20.88;100.00;101642.16;5222442;28;20036;-70
2023/06/25 06:59:29;;;;;;;11.45;8.35;;;;;;;20.88;100.00;101637.59;5226940;28;20026;-71
2023/06/25 07:02:00;;;;;;;11.70;7.20;;;;;;;21.18;100.00;101632.56;5225378;28;20037;-70
2023/06/25 07:04:31;;;;;;;10.38;7.30;;;;;;;21.19;100.00;101639.69;5228005;28;20060;-71
2023/06/25 07:07:03;;;;;;;9.98;6.57;;;;;;;21.48;100.00;101638.38;5225194;28;20050;-71
2023/06/25 07:09:34;;;;;;;7.38;5.57;;;;;;;21.52;100.00;101634.31;5225160;28;20076;-71
2023/06/25 07:12:07;;;;;;;10.30;5.30;;;;;;;21.78;100.00;101634.09;5241180;28;20033;-70
2023/06/25 07:14:39;;;;;;;8.88;5.13;;;;;;;21.95;100.00;101634.06;5222309;28;20018;-71
2023/06/25 07:17:10;;;;;;;6.95;5.05;;;;;;;21.91;100.00;101645.28;5226876;28;20032;-71
2023/06/25 07:19:41;;;;;;;7.65;5.68;;;;;;;22.16;100.00;101639.78;5226099;28;20022;-71
2023/06/25 07:22:13;;;;;;;8.88;5.20;;;;;;;22.16;100.00;101630.78;5222344;28;20037;-71
2023/06/25 07:24:44;;;;;;;7.95;5.38;;;;;;;22.39;100.00;101642.63;5225672;28;20021;-71
2023/06/25 07:27:16;;;;;;;8.07;5.55;;;;;;;22.47;100.00;101642.59;5227394;28;20033;-71
2023/06/25 07:29:47;;;;;;;9.68;5.53;;;;;;;22.52;100.00;101631.19;5226002;28;20088;-71
2023/06/25 07:32:18;;;;;;;8.13;4.80;;;;;;;22.78;100.00;101630.91;5225315;28;20038;-71
2023/06/25 07:34:50;;;;;;;8.23;5.20;;;;;;;22.71;100.00;101628.03;5225780;28;20179;-71
2023/06/25 07:37:21;;;;;;;7.88;4.88;;;;;;;23.08;100.00;101625.63;5224000;28;20017;-71
2023/06/25 07:39:53;;;;;;;7.07;5.50;;;;;;;22.87;100.00;101627.09;5225819;28;20767;-71
2023/06/25 07:42:24;;;;;;;6.18;4.25;;;;;;;23.04;100.00;101625.16;5223325;28;20033;-71
2023/06/25 07:44:55;;;;;;;6.55;4.68;;;;;;;23.18;100.00;101626.22;5235228;28;20558;-71
2023/06/25 07:47:27;;;;;;;8.23;5.65;;;;;;;23.27;100.00;101625.16;5226020;28;20176;-71
2023/06/25 07:49:58;;;;;;;8.35;5.10;;;;;;;23.54;100.00;101625.59;5226247;28;20025;-71
2023/06/25 07:52:30;;;;;;;7.38;4.90;;;;;;;23.77;100.00;101616.53;5227736;28;20033;-71
2023/06/25 07:55:02;;;;;;;5.97;4.63;;;;;;;23.68;100.00;101616.63;5226656;28;20439;-71
2023/06/25 07:57:33;;;;;;;6.32;5.00;;;;;;;24.03;100.00;101616.97;5224278;28;20037;-71
2023/06/25 08:00:06;;;;;;;7.35;5.03;;;;;;;23.93;100.00;101610.09;5231401;28;20029;-71
2023/06/25 08:02:37;;;;;;;7.18;4.68;;;;;;;24.07;100.00;101612.00;5221595;28;20030;-71
2023/06/25 08:05:10;;;;;;;6.55;4.70;;;;;;;24.11;100.00;101609.75;5228152;28;20033;-71
2023/06/25 08:07:42;;;;;;;6.75;4.50;;;;;;;24.09;100.00;101612.66;5231163;28;20581;-71
2023/06/25 08:10:13;;;;;;;8.38;4.70;;;;;;;24.17;100.00;101609.81;5221617;28;20055;-72
2023/06/25 08:12:44;;;;;;;7.47;5.30;;;;;;;24.38;100.00;101609.06;5226686;28;20092;-72
2023/06/25 08:15:16;;;;;;;6.05;4.97;;;;;;;24.38;100.00;101605.50;5232260;28;20051;-71
2023/06/25 08:17:48;;;;;;;8.00;5.47;;;;;;;24.70;100.00;101615.16;5224041;28;20029;-71
2023/06/25 08:20:19;;;;;;;7.20;4.80;;;;;;;24.62;100.00;101613.38;5226392;28;20112;-72
2023/06/25 08:22:50;;;;;;;7.68;4.70;;;;;;;24.90;100.00;101614.53;5224308;28;20026;-71
2023/06/25 08:25:25;;;;;;;7.22;4.45;;;;;;;24.77;100.00;101605.13;5224036;28;20091;-71
2023/06/25 08:27:56;;;;;;;7.30;4.32;;;;;;;25.02;100.00;101602.88;5229188;28;20031;-72
2023/06/25 08:30:27;;;;;;;6.95;4.25;;;;;;;25.02;100.00;101602.88;5227917;28;20029;-71
2023/06/25 08:32:59;;;;;;;5.53;4.20;;;;;;;25.16;100.00;101601.16;5221604;28;20056;-72
2023/06/25 08:35:30;;;;;;;6.75;4.80;;;;;;;25.27;100.00;101596.22;5232570;28;20030;-72
2023/06/25 08:38:01;;;;;;;5.63;4.63;;;;;;;25.48;100.00;101598.06;5226494;28;20030;-72
2023/06/25 08:40:35;;;;;;;6.20;4.25;;;;;;;25.52;100.00;101591.16;5227775;28;20107;-72
2023/06/25 08:43:07;;;;;;;5.97;4.65;;;;;;;25.77;100.00;101591.56;5232533;28;20109;-72
2023/06/25 08:45:38;;;;;;;6.28;5.00;;;;;;;25.55;100.00;101591.63;5227899;28;20047;-72
2023/06/25 08:48:15;;;;;;;7.05;4.80;;;;;;;25.55;100.00;101586.16;5231398;28;20420;-72
2023/06/25 08:50:52;;;;;;;6.43;4.07;;;;;;;25.69;100.00;101587.09;5230275;28;20028;-73
2023/06/25 08:53:25;;;;;;;5.63;4.03;;;;;;;25.85;100.00;101591.41;5229386;28;20392;-72
2023/06/25 08:56:00;;;;;;;6.63;4.57;;;;;;;25.96;100.00;101588.13;5229063;28;20033;-72
2023/06/25 08:58:31;;;;;;;7.13;4.03;;;;;;;26.05;100.00;101588.81;5229846;28;20028;-73
2023/06/25 09:01:03;;;;;;;6.63;4.28;;;;;;;26.04;100.00;101586.28;5227764;28;20038;-73
2023/06/25 09:03:35;;;;;;;5.30;4.25;;;;;;;26.05;100.00;101588.00;5226909;28;20029;-72
2023/06/25 09:06:12;;;;;;;5.65;4.40;;;;;;;26.32;100.00;101587.06;5234069;28;20549;-72
2023/06/25 09:08:44;;;;;;;5.80;3.97;;;;;;;26.30;100.00;101588.31;5237867;28;20139;-72
2023/06/25 09:11:15;;;;;;;7.40;4.80;;;;;;;26.41;100.00;101585.00;5226468;28;20029;-73
2023/06/25 09:13:47;;;;;;;5.07;4.10;;;;;;;26.44;100.00;101579.09;5239619;28;20999;-72
2023/06/25 09:16:18;;;;;;;5.32;3.95;;;;;;;26.44;100.00;101575.53;5233048;28;20365;-72
2023/06/25 09:18:50;;;;;;;6.78;4.45;;;;;;;26.59;100.00;101568.88;5229682;28;20514;-72
2023/06/25 09:21:21;;;;;;;6.25;4.30;;;;;;;26.63;100.00;101576.69;5225842;28;20021;-72
2023/06/25 09:23:53;;;;;;;6.93;4.13;;;;;;;26.74;100.00;101573.34;5233705;28;20478;-73
2023/06/25 09:26:24;;;;;;;6.38;4.40;;;;;;;26.91;100.00;101574.63;5226619;28;20055;-73
2023/06/25 09:28:59;;;;;;;5.18;4.38;;;;;;;26.92;100.00;101564.53;5236781;28;20037;-73
2023/06/25 09:31:32;;;;;;;6.25;4.05;;;;;;;27.18;100.00;101577.41;5232339;28;20423;-72
2023/06/25 09:34:04;;;;;;;6.75;4.13;;;;;;;27.22;100.00;101570.44;5232355;28;20041;-72
2023/06/25 09:36:36;;;;;;;5.90;4.00;;;;;;;27.45;100.00;101570.06;5223667;28;20030;-76
2023/06/25 09:39:10;;;;;;;5.70;4.10;;;;;;;27.32;100.00;101573.63;5234472;28;20052;-72
2023/06/25 09:41:42;;;;;;;5.20;3.75;;;;;;;27.83;100.00;101565.78;5240391;28;20029;-72
2023/06/25 09:44:15;;;;;;;4.78;3.85;;;;;;;27.61;100.00;101560.53;5232891;28;20264;-71
2023/06/25 09:46:49;;;;;;;6.10;3.83;;;;;;;27.67;100.00;101562.44;5231507;28;20029;-72
2023/06/25 09:49:21;;;;;;;6.65;4.15;;;;;;;27.59;100.00;101554.44;5243067;28;20044;-72
2023/06/25 09:52:04;;;;;;;5.78;4.28;;;;;;;27.71;100.00;101557.34;5239622;28;20041;-71
2023/06/25 09:54:39;;;;;;;7.55;3.80;;;;;;;27.74;100.00;101551.47;5232438;28;20030;-72
2023/06/25 09:57:17;;;;;;;5.57;4.00;;;;;;;27.83;100.00;101550.19;5232775;28;20017;-71
2023/06/25 09:59:48;;;;;;;4.95;4.32;;;;;;;27.91;100.00;101547.22;5231666;28;20033;-71
2023/06/25 10:02:20;;;;;;;6.80;4.20;;;;;;;28.01;100.00;101555.00;5235470;28;20029;-71
2023/06/25 10:04:52;;;;;;;5.63;3.72;;;;;;;28.05;100.00;101555.41;5225491;28;20033;-71
2023/06/25 10:07:24;;;;;;;6.60;4.18;;;;;;;28.41;100.00;101545.75;5229469;28;20068;-71
2023/06/25 10:09:56;;;;;;;5.88;4.22;;;;;;;28.19;100.00;101547.97;5238064;28;20609;-71
2023/06/25 10:12:37;;;;;;;5.88;4.25;;;;;;;28.10;100.00;101537.25;5226973;28;20029;-75
2023/06/25 10:15:09;;;;;;;6.53;4.13;;;;;;;28.15;100.00;101534.69;5227291;28;20116;-72
2023/06/25 10:17:50;;;;;;;5.93;4.07;;;;;;;28.30;100.00;101536.31;5232917;28;20024;-72
2023/06/25 10:20:44;;;;;;;8.05;4.70;;;;;;;28.48;100.00;101541.09;5233112;28;20068;-72
2023/06/25 10:23:24;;;;;;;6.00;4.25;;;;;;;28.39;100.00;101529.50;5227312;28;20091;-74
2023/06/25 10:25:59;;;;;;;6.20;3.85;;;;;;;28.49;98.39;101531.78;5231595;28;20025;-71
2023/06/25 10:28:32;;;;;;;8.18;4.03;;;;;;;28.82;95.41;101523.34;5241012;28;20025;-72
2023/06/25 10:31:13;;;;;;;;;;;;;;;28.86;100.00;101524.59;5239805;28;20938;-71
2023/06/25 10:33:45;;;;;;;6.22;4.30;;;;;;;28.79;96.07;101525.72;5231569;28;19916;-71
2023/06/25 10:36:24;;;;;;;6.50;4.28;;;;;;;28.83;96.66;101516.78;5228668;28;20024;-74
2023/06/25 10:38:58;;;;;;;6.28;4.30;;;;;;;28.82;95.39;101523.34;5246420;28;20105;-73
2023/06/25 10:41:31;;;;;;;5.68;4.30;;;;;;;28.89;94.94;101520.56;5233618;28;20068;-71
2023/06/25 10:44:03;;;;;;;5.10;3.83;;;;;;;29.15;94.06;101514.03;5231133;28;20403;-70
2023/06/25 10:46:34;;;;;;;6.53;4.25;;;;;;;29.13;89.18;101508.78;5229469;28;20032;-71
2023/06/25 10:49:06;;;;;;;5.20;4.18;;;;;;;29.15;88.04;101507.69;5229436;28;20033;-71
2023/06/25 10:51:37;;;;;;;6.75;3.72;;;;;;;29.09;87.77;101512.13;5234923;28;20025;-71
2023/06/25 10:54:09;;;;;;;4.97;4.28;;;;;;;29.10;87.15;101511.09;5233610;28;20400;-71
2023/06/25 10:56:40;;;;;;;5.22;3.65;;;;;;;29.12;88.32;101512.56;5235450;28;20021;-73
2023/06/25 10:59:12;;;;;;;4.43;3.83;;;;;;;29.18;92.19;101501.75;5221586;28;20084;-75
2023/06/25 11:01:44;;;;;;;6.22;4.22;;;;;;;29.10;85.64;101500.94;5228161;28;20108;-72
2023/06/25 11:04:15;;;;;;;6.15;4.13;;;;;;;29.22;89.14;101498.31;5228381;28;20036;-70
2023/06/25 11:06:47;;;;;;;5.93;4.03;;;;;;;29.47;86.47;101498.28;5232995;28;20053;-71
2023/06/25 11:09:18;;;;;;;6.10;3.85;;;;;;;29.46;87.88;101493.84;5222891;28;20033;-72
2023/06/25 11:11:52;;;;;;;7.50;4.38;;;;;;;29.60;84.87;101482.72;5228593;28;20174;-72
2023/06/25 11:14:24;;;;;;;5.82;3.90;;;;;;;29.51;85.03;101490.41;5231322;28;20033;-72
2023/06/25 11:16:56;;;;;;;5.88;4.00;;;;;;;29.71;86.62;101485.53;5227079;28;20037;-72
2023/06/25 11:19:30;;;;;;;4.63;3.80;;;;;;;29.88;84.28;101480.28;5220860;28;20025;-71
2023/06/25 11:22:07;;;;;;;6.43;4.25;;;;;;;29.69;90.95;101478.59;5222515;28;20040;-71
2023/06/25 11:24:38;;;;;;;5.60;4.13;;;;;;;29.65;84.68;101475.47;5222855;28;20043;-72
2023/06/25 11:27:10;;;;;;;6.22;4.18;;;;;;;29.68;87.74;101479.66;5219946;28;20040;-71
2023/06/25 11:29:41;;;;;;;5.85;4.55;;;;;;;29.63;81.27;101471.25;5223355;28;20043;-71
2023/06/25 11:32:22;;;;;;;5.65;3.85;;;;;;;29.71;90.39;101479.22;5229118;28;20037;-71